Time;durP1;ratioP1;P1;durP2;ratioP2;P2;SDS_P1;SDS_P2;PMS_P1;PMS_P2;Temp;Humidity;BMP_temperature;BMP_pressure;BME280_temperature;BME280_humidity;BME280_pressure;Samples;Min_cycle;Max_cycle;Signal;HPM_P1;HPM_P2
2021/06/05 00:00:50;;;;;;;3.22;2.92;;;17.90;99.90;;;;;;5014686;28;20097;-73
2021/06/05 00:03:17;;;;;;;4.00;2.97;;;17.90;99.90;;;;;;5017655;28;20089;-73
2021/06/05 00:05:49;;;;;;;3.08;2.75;;;17.80;99.90;;;;;;5011781;28;20117;-73
2021/06/05 00:08:16;;;;;;;5.00;2.83;;;17.80;99.90;;;;;;5026405;28;20086;-73
2021/06/05 00:10:45;;;;;;;4.13;2.60;;;17.90;99.90;;;;;;5018560;28;20395;-74
2021/06/05 00:13:14;;;;;;;2.60;2.30;;;17.90;99.90;;;;;;5015172;28;20074;-74
2021/06/05 00:15:43;;;;;;;3.35;2.67;;;18.00;99.90;;;;;;5010506;28;20078;-73
2021/06/05 00:18:09;;;;;;;3.35;2.90;;;18.00;99.90;;;;;;5029636;28;20136;-73
2021/06/05 00:20:35;;;;;;;2.83;2.28;;;18.00;99.90;;;;;;5018915;28;20094;-73
2021/06/05 00:23:03;;;;;;;3.22;2.80;;;18.00;99.90;;;;;;5015245;28;20081;-73
2021/06/05 00:25:31;;;;;;;4.25;2.63;;;17.90;99.90;;;;;;5011608;28;20067;-73
2021/06/05 00:27:57;;;;;;;3.83;2.85;;;17.80;99.90;;;;;;5014321;28;20079;-74
2021/06/05 00:30:23;;;;;;;3.47;2.92;;;17.80;99.90;;;;;;5014363;28;20097;-73
2021/06/05 00:32:48;;;;;;;4.18;2.78;;;17.80;99.90;;;;;;5014917;28;20102;-73
2021/06/05 00:35:14;;;;;;;3.15;2.85;;;17.80;99.90;;;;;;5014324;28;20121;-73
2021/06/05 00:37:40;;;;;;;3.03;2.47;;;17.90;99.90;;;;;;5007342;28;20078;-73
2021/06/05 00:40:08;;;;;;;2.95;2.63;;;17.90;99.90;;;;;;5014305;28;20728;-73
2021/06/05 00:42:34;;;;;;;3.67;2.80;;;17.90;99.90;;;;;;5011158;28;20078;-73
2021/06/05 00:44:59;;;;;;;4.22;2.60;;;17.90;99.90;;;;;;5011105;28;20112;-73
2021/06/05 00:47:25;;;;;;;3.95;3.25;;;17.80;99.90;;;;;;5014074;28;20169;-73
2021/06/05 00:49:53;;;;;;;4.07;2.72;;;17.70;99.90;;;;;;5040469;28;20176;-73
2021/06/05 00:52:23;;;;;;;2.40;2.20;;;17.70;99.90;;;;;;5038887;28;20112;-74
2021/06/05 00:54:48;;;;;;;3.03;2.58;;;17.60;99.90;;;;;;5015450;28;20082;-73
2021/06/05 00:57:14;;;;;;;4.18;2.38;;;17.60;99.90;;;;;;5011711;28;20456;-73
2021/06/05 00:59:39;;;;;;;2.53;2.22;;;17.60;99.90;;;;;;5010045;28;20098;-73
2021/06/05 01:02:05;;;;;;;2.97;2.30;;;17.60;99.90;;;;;;5014967;28;20085;-73
2021/06/05 01:04:32;;;;;;;2.40;1.98;;;17.50;99.90;;;;;;5016517;28;20153;-73
2021/06/05 01:07:28;;;;;;;2.67;2.47;;;17.50;99.90;;;;;;5010023;28;20426;-74
2021/06/05 01:10:20;;;;;;;2.70;2.45;;;17.40;99.90;;;;;;5022922;28;20160;-73
2021/06/05 01:13:02;;;;;;;2.85;2.55;;;17.30;99.90;;;;;;5010622;28;20823;-73
2021/06/05 01:15:31;;;;;;;2.53;2.33;;;17.30;99.90;;;;;;5010186;28;20161;-73
2021/06/05 01:18:02;;;;;;;2.85;2.65;;;17.40;99.90;;;;;;5008386;28;20082;-73
2021/06/05 01:21:19;;;;;;;2.90;2.70;;;17.40;99.90;;;;;;5011119;28;20133;-74
2021/06/05 01:23:53;;;;;;;3.50;2.70;;;17.30;99.90;;;;;;4998659;28;20094;-74
2021/06/05 01:26:29;;;;;;;3.33;2.17;;;17.20;99.90;;;;;;5010169;28;20105;-74
2021/06/05 01:29:06;;;;;;;2.92;2.20;;;17.10;99.90;;;;;;5023686;28;20088;-74
2021/06/05 01:31:37;;;;;;;5.43;2.50;;;17.10;99.90;;;;;;5024624;28;20128;-74
2021/06/05 01:34:04;;;;;;;2.92;2.42;;;17.10;99.90;;;;;;5005051;28;20082;-74
2021/06/05 01:36:30;;;;;;;2.80;2.55;;;17.10;99.90;;;;;;5009310;28;20090;-74
2021/06/05 01:39:00;;;;;;;3.35;2.72;;;17.20;99.90;;;;;;5008738;28;20444;-74
2021/06/05 01:41:28;;;;;;;2.70;2.50;;;17.20;99.90;;;;;;5012271;28;20683;-74
2021/06/05 01:43:54;;;;;;;2.83;2.63;;;17.00;99.90;;;;;;5008407;28;20074;-74
2021/06/05 01:46:30;;;;;;;2.92;2.53;;;17.00;99.90;;;;;;5009409;28;20152;-74
2021/06/05 01:48:56;;;;;;;2.60;2.40;;;17.10;99.90;;;;;;5011132;28;20596;-74
2021/06/05 01:51:22;;;;;;;2.90;2.60;;;17.00;99.90;;;;;;5010349;28;20075;-74
2021/06/05 01:53:55;;;;;;;2.70;2.50;;;17.00;99.90;;;;;;5009834;28;20080;-74
2021/06/05 01:56:38;;;;;;;2.85;2.25;;;17.00;99.90;;;;;;5012449;28;20078;-74
2021/06/05 01:59:06;;;;;;;3.60;2.60;;;17.00;99.90;;;;;;5008368;28;20082;-74
2021/06/05 02:01:32;;;;;;;3.25;2.80;;;17.00;99.90;;;;;;5008183;28;20109;-74
2021/06/05 02:03:59;;;;;;;3.33;2.80;;;17.10;99.90;;;;;;5009284;28;20120;-74
2021/06/05 02:06:25;;;;;;;3.65;2.67;;;17.10;99.90;;;;;;5008569;28;20156;-74
2021/06/05 02:08:52;;;;;;;4.82;2.60;;;17.10;99.90;;;;;;5010092;28;20075;-74
2021/06/05 02:11:20;;;;;;;3.90;2.55;;;17.00;99.90;;;;;;5012615;28;20090;-74
2021/06/05 02:13:54;;;;;;;3.30;2.40;;;17.00;99.90;;;;;;5010204;28;20083;-74
2021/06/05 02:16:24;;;;;;;3.13;2.88;;;17.00;99.90;;;;;;5009774;28;20531;-74
2021/06/05 02:18:55;;;;;;;4.38;2.75;;;17.00;99.90;;;;;;5009145;28;20082;-74
2021/06/05 02:21:24;;;;;;;3.10;2.83;;;17.00;99.90;;;;;;5008069;28;20649;-74
2021/06/05 02:23:59;;;;;;;4.82;2.90;;;17.00;99.90;;;;;;5008662;28;20610;-74
2021/06/05 02:26:25;;;;;;;2.58;2.38;;;17.10;99.90;;;;;;5016393;28;20084;-74
2021/06/05 02:28:57;;;;;;;2.97;2.60;;;17.10;99.90;;;;;;5008231;28;20078;-74
2021/06/05 02:31:23;;;;;;;2.58;2.38;;;17.20;99.90;;;;;;5008167;28;20071;-74
2021/06/05 02:33:49;;;;;;;2.50;2.30;;;17.10;99.90;;;;;;5008557;28;20085;-74
2021/06/05 02:36:16;;;;;;;2.08;1.98;;;17.10;99.90;;;;;;5008878;28;20082;-73
2021/06/05 02:38:46;;;;;;;2.63;1.90;;;17.10;99.90;;;;;;5007589;28;20161;-74
2021/06/05 02:41:14;;;;;;;2.17;1.98;;;17.20;99.90;;;;;;5028817;28;20150;-74
2021/06/05 02:43:42;;;;;;;2.83;2.20;;;17.20;99.90;;;;;;5006694;28;20450;-74
2021/06/05 02:46:39;;;;;;;3.30;1.83;;;17.30;99.90;;;;;;5010588;28;20109;-74
2021/06/05 02:49:27;;;;;;;2.30;2.10;;;17.30;99.90;;;;;;5013655;28;20169;-74
2021/06/05 02:51:59;;;;;;;2.22;1.77;;;17.40;99.90;;;;;;5009361;28;20086;-74
2021/06/05 02:54:25;;;;;;;2.55;2.20;;;17.40;99.90;;;;;;5013944;28;20079;-74
2021/06/05 02:56:53;;;;;;;2.70;2.50;;;17.40;99.90;;;;;;5007433;28;20085;-74
2021/06/05 02:59:20;;;;;;;2.45;2.05;;;17.40;99.90;;;;;;5007423;28;20392;-74
2021/06/05 03:01:46;;;;;;;3.00;2.00;;;17.40;99.90;;;;;;5007918;28;20075;-74
2021/06/05 03:04:11;;;;;;;2.40;2.20;;;17.40;99.90;;;;;;5014368;28;20078;-74
2021/06/05 03:06:38;;;;;;;2.88;2.05;;;17.30;99.90;;;;;;5008598;28;20063;-73
2021/06/05 03:09:06;;;;;;;2.92;2.17;;;17.30;99.90;;;;;;5006610;28;20108;-74
2021/06/05 03:11:32;;;;;;;3.08;2.75;;;17.30;99.90;;;;;;5026879;28;20173;-74
2021/06/05 03:13:57;;;;;;;2.47;2.28;;;17.30;99.90;;;;;;5010720;28;20070;-73
2021/06/05 03:16:23;;;;;;;2.55;2.35;;;17.40;99.90;;;;;;5024327;28;20097;-74
2021/06/05 03:18:49;;;;;;;2.75;2.55;;;17.40;99.90;;;;;;5007999;28;20491;-74
2021/06/05 03:21:18;;;;;;;2.97;2.65;;;17.30;99.90;;;;;;5008419;28;20213;-74
2021/06/05 03:23:47;;;;;;;4.43;2.80;;;17.40;99.90;;;;;;5008267;28;20070;-74
2021/06/05 03:26:13;;;;;;;3.08;2.78;;;17.40;99.90;;;;;;5008376;28;20154;-74
2021/06/05 03:28:40;;;;;;;3.13;2.80;;;17.40;99.90;;;;;;5008117;28;20097;-74
2021/06/05 03:31:06;;;;;;;3.10;2.80;;;17.40;99.90;;;;;;5014867;28;20101;-74
2021/06/05 03:33:32;;;;;;;3.30;3.00;;;17.40;99.90;;;;;;5017696;28;20102;-74
2021/06/05 03:35:58;;;;;;;4.72;3.25;;;17.30;99.90;;;;;;5008303;28;20538;-74
2021/06/05 03:38:25;;;;;;;5.60;4.20;;;17.30;99.90;;;;;;5022263;28;20086;-74
2021/06/05 03:40:52;;;;;;;4.20;3.80;;;17.20;99.90;;;;;;5009747;28;20098;-74
2021/06/05 03:43:18;;;;;;;5.07;4.47;;;17.20;99.90;;;;;;5007747;28;20075;-75
2021/06/05 03:45:44;;;;;;;4.90;3.78;;;17.20;99.90;;;;;;5007894;28;20077;-74
2021/06/05 03:48:10;;;;;;;4.65;4.25;;;17.10;99.90;;;;;;5017628;28;20149;-73
2021/06/05 03:50:40;;;;;;;5.55;5.05;;;17.10;99.90;;;;;;5028391;28;20113;-73
2021/06/05 03:53:06;;;;;;;5.60;4.63;;;17.00;99.90;;;;;;5020389;28;20082;-73
2021/06/05 03:55:32;;;;;;;4.80;4.30;;;17.10;99.90;;;;;;5006974;28;20176;-74
2021/06/05 03:57:59;;;;;;;5.70;4.65;;;16.90;99.90;;;;;;5010587;28;20489;-73
2021/06/05 04:00:30;;;;;;;5.22;4.70;;;16.90;99.90;;;;;;5009181;28;20168;-74
2021/06/05 04:02:55;;;;;;;4.80;4.32;;;16.90;99.90;;;;;;5007151;28;20110;-74
2021/06/05 04:05:22;;;;;;;6.63;5.40;;;17.00;99.90;;;;;;5024960;28;20585;-74
2021/06/05 04:07:48;;;;;;;5.60;5.03;;;16.90;99.90;;;;;;5021421;28;20084;-74
2021/06/05 04:10:14;;;;;;;6.13;5.55;;;16.90;99.90;;;;;;5016225;28;20098;-74
2021/06/05 04:12:39;;;;;;;5.35;4.70;;;17.00;99.90;;;;;;5019252;28;20102;-73
2021/06/05 04:15:08;;;;;;;6.32;5.40;;;17.00;99.90;;;;;;5010105;28;20078;-74
2021/06/05 04:17:33;;;;;;;7.13;5.72;;;17.00;99.90;;;;;;5026862;28;20142;-74
2021/06/05 04:19:59;;;;;;;6.57;5.95;;;17.00;99.90;;;;;;5011515;28;20734;-73
2021/06/05 04:22:24;;;;;;;5.95;5.15;;;17.10;99.90;;;;;;5014946;28;20084;-73
2021/06/05 04:24:50;;;;;;;5.68;5.13;;;17.10;99.90;;;;;;5012418;28;20075;-74
2021/06/05 04:27:16;;;;;;;6.60;5.90;;;17.10;99.90;;;;;;5010063;28;20430;-74
2021/06/05 04:29:41;;;;;;;7.22;6.18;;;17.10;99.90;;;;;;5012146;28;20090;-73
2021/06/05 04:32:08;;;;;;;7.68;5.53;;;17.10;99.90;;;;;;5009970;28;20070;-73
2021/06/05 04:34:33;;;;;;;6.03;5.40;;;17.10;99.90;;;;;;5012142;28;20097;-75
2021/06/05 04:36:59;;;;;;;8.10;5.28;;;17.20;99.90;;;;;;5011340;28;20075;-74
2021/06/05 04:39:25;;;;;;;7.75;6.07;;;17.20;99.90;;;;;;5012355;28;20110;-74
2021/06/05 04:41:51;;;;;;;6.70;6.00;;;17.30;99.90;;;;;;5019446;28;20083;-74
2021/06/05 04:44:17;;;;;;;6.22;5.63;;;17.20;99.90;;;;;;5012299;28;20089;-74
2021/06/05 04:46:43;;;;;;;7.63;5.80;;;17.30;99.90;;;;;;5010713;28;20102;-74
2021/06/05 04:49:08;;;;;;;7.60;6.25;;;17.30;99.90;;;;;;5011730;28;20110;-74
2021/06/05 04:51:36;;;;;;;7.60;5.72;;;17.30;99.90;;;;;;5011373;28;20597;-74
2021/06/05 04:54:02;;;;;;;6.72;5.50;;;17.30;99.90;;;;;;5011646;28;20069;-74
2021/06/05 04:56:39;;;;;;;6.38;5.30;;;17.30;99.90;;;;;;5009850;28;20074;-74
2021/06/05 04:59:05;;;;;;;7.20;5.50;;;17.40;99.90;;;;;;5011149;28;20089;-74
2021/06/05 05:01:32;;;;;;;7.22;5.20;;;17.40;99.90;;;;;;5009616;28;20079;-74
2021/06/05 05:03:57;;;;;;;7.57;5.28;;;17.40;99.90;;;;;;5010826;28;20558;-73
2021/06/05 05:06:23;;;;;;;7.22;6.03;;;17.40;99.90;;;;;;5009960;28;20093;-73
2021/06/05 05:08:49;;;;;;;10.93;5.15;;;17.50;99.90;;;;;;5015246;28;20776;-74
2021/06/05 05:11:15;;;;;;;5.40;4.90;;;17.50;99.90;;;;;;5013284;28;20106;-74
2021/06/05 05:13:41;;;;;;;6.78;4.93;;;17.40;99.90;;;;;;5010757;28;20605;-74
2021/06/05 05:16:07;;;;;;;5.78;5.15;;;17.50;99.90;;;;;;5009401;28;20089;-74
2021/06/05 05:18:33;;;;;;;5.43;4.93;;;17.50;99.90;;;;;;5012241;28;20555;-74
2021/06/05 05:21:00;;;;;;;5.15;4.65;;;17.50;99.90;;;;;;5009879;28;20102;-74
2021/06/05 05:23:28;;;;;;;7.47;4.88;;;17.50;99.90;;;;;;5009220;28;20566;-74
2021/06/05 05:25:55;;;;;;;8.32;5.22;;;17.50;99.90;;;;;;5008771;28;20082;-74
2021/06/05 05:28:21;;;;;;;7.38;4.80;;;17.70;99.90;;;;;;5011184;28;20070;-74
2021/06/05 05:30:52;;;;;;;6.93;5.22;;;17.50;99.90;;;;;;5008739;28;20098;-74
2021/06/05 05:33:19;;;;;;;6.65;4.85;;;17.50;99.90;;;;;;5011934;28;20075;-74
2021/06/05 05:35:45;;;;;;;5.85;5.00;;;17.50;99.90;;;;;;5010715;28;20721;-74
2021/06/05 05:38:11;;;;;;;5.15;4.60;;;17.50;99.90;;;;;;5010598;28;20086;-74
2021/06/05 05:40:38;;;;;;;5.80;4.65;;;17.50;99.90;;;;;;5011812;28;20102;-74
2021/06/05 05:43:04;;;;;;;4.45;3.83;;;17.50;99.90;;;;;;5008900;28;20078;-74
2021/06/05 05:45:30;;;;;;;6.35;5.10;;;17.60;99.90;;;;;;5009742;28;20097;-74
2021/06/05 05:47:57;;;;;;;5.22;4.38;;;17.60;99.90;;;;;;5017032;28;20444;-74
2021/06/05 05:50:23;;;;;;;6.15;4.28;;;17.60;99.90;;;;;;5013638;28;20562;-74
2021/06/05 05:52:48;;;;;;;7.40;4.18;;;17.50;99.90;;;;;;5008662;28;20079;-74
2021/06/05 05:55:15;;;;;;;6.20;3.88;;;17.50;99.90;;;;;;5009398;28;20190;-74
2021/06/05 05:57:41;;;;;;;4.90;4.43;;;17.50;99.90;;;;;;5006835;28;20096;-73
2021/06/05 06:00:10;;;;;;;6.72;4.10;;;17.50;99.90;;;;;;5009527;28;20565;-74
2021/06/05 06:02:36;;;;;;;8.00;4.47;;;17.60;99.90;;;;;;5007730;28;20086;-74
2021/06/05 06:05:01;;;;;;;6.10;4.60;;;17.50;99.90;;;;;;5008881;28;20082;-74
2021/06/05 06:07:27;;;;;;;4.72;4.25;;;17.50;99.90;;;;;;5008623;28;20074;-74
2021/06/05 06:09:53;;;;;;;5.40;3.88;;;17.70;99.90;;;;;;5014601;28;20180;-74
2021/06/05 06:12:19;;;;;;;8.73;4.57;;;17.80;99.90;;;;;;5013173;28;20078;-74
2021/06/05 06:14:45;;;;;;;4.78;4.10;;;17.90;99.90;;;;;;5026209;28;20457;-74
2021/06/05 06:17:10;;;;;;;4.68;3.75;;;17.90;99.90;;;;;;5013290;28;20082;-73
2021/06/05 06:19:36;;;;;;;4.30;3.88;;;17.90;99.90;;;;;;5007210;28;20099;-74
2021/06/05 06:22:02;;;;;;;3.72;3.38;;;18.00;99.90;;;;;;5009169;28;20153;-74
2021/06/05 06:24:27;;;;;;;4.63;3.30;;;18.10;99.90;;;;;;5036846;28;20102;-74
2021/06/05 06:26:53;;;;;;;4.97;4.05;;;18.10;99.90;;;;;;5011393;28;20093;-74
2021/06/05 06:29:27;;;;;;;3.75;3.03;;;18.10;99.90;;;;;;5008451;28;20094;-74
2021/06/05 06:31:52;;;;;;;4.27;3.33;;;18.20;99.90;;;;;;5011604;28;20530;-74
2021/06/05 06:34:18;;;;;;;4.15;2.63;;;18.20;99.90;;;;;;5006497;28;20078;-74
2021/06/05 06:36:44;;;;;;;5.63;4.07;;;18.20;99.90;;;;;;5023143;28;20082;-73
2021/06/05 06:39:11;;;;;;;3.50;2.55;;;18.20;99.90;;;;;;5011503;28;20077;-74
2021/06/05 06:41:37;;;;;;;4.85;4.05;;;18.20;99.90;;;;;;5018013;28;20066;-74
2021/06/05 06:44:05;;;;;;;5.32;3.78;;;18.30;99.90;;;;;;5010103;28;20145;-74
2021/06/05 06:46:39;;;;;;;3.30;2.63;;;18.20;99.90;;;;;;5013162;28;20154;-75
2021/06/05 06:49:06;;;;;;;3.50;2.97;;;18.40;99.90;;;;;;5014769;28;20448;-75
2021/06/05 06:51:34;;;;;;;3.30;2.95;;;18.40;99.90;;;;;;5025723;28;20166;-73
2021/06/05 06:54:00;;;;;;;4.97;3.15;;;18.50;99.90;;;;;;5011338;28;20079;-75
2021/06/05 06:56:26;;;;;;;4.70;3.13;;;18.60;99.90;;;;;;5016388;28;20074;-73
2021/06/05 06:58:52;;;;;;;3.20;2.63;;;18.60;99.90;;;;;;5029818;28;20070;-75
2021/06/05 07:01:18;;;;;;;3.75;3.08;;;18.60;99.90;;;;;;5020920;28;20484;-75
2021/06/05 07:03:44;;;;;;;3.03;2.67;;;18.60;99.90;;;;;;5020081;28;20120;-74
2021/06/05 07:06:11;;;;;;;5.05;3.40;;;18.70;99.90;;;;;;5023942;28;20082;-73
2021/06/05 07:08:38;;;;;;;4.43;3.33;;;18.90;99.90;;;;;;5028110;28;20127;-75
2021/06/05 07:11:17;;;;;;;3.58;2.63;;;18.90;99.90;;;;;;5025913;28;20094;-75
2021/06/05 07:13:43;;;;;;;4.93;3.15;;;19.10;99.90;;;;;;5026957;28;20098;-75
2021/06/05 07:16:09;;;;;;;4.72;2.63;;;19.20;99.90;;;;;;5019745;28;20074;-77
2021/06/05 07:18:35;;;;;;;3.88;2.88;;;19.40;99.90;;;;;;5030104;28;20434;-76
2021/06/05 07:21:03;;;;;;;4.35;2.40;;;19.60;99.90;;;;;;5015132;28;20772;-75
2021/06/05 07:23:31;;;;;;;3.42;2.13;;;19.70;99.90;;;;;;5020479;28;20078;-74
2021/06/05 07:25:58;;;;;;;1.73;1.63;;;19.90;99.90;;;;;;5009042;28;20075;-75
2021/06/05 07:28:38;;;;;;;3.45;1.95;;;20.00;99.90;;;;;;5013017;28;20077;-74
2021/06/05 07:31:05;;;;;;;2.78;1.80;;;20.20;99.90;;;;;;5009428;28;20614;-74
2021/06/05 07:33:31;;;;;;;3.58;1.73;;;20.30;99.90;;;;;;5004875;28;20079;-75
2021/06/05 07:35:59;;;;;;;4.53;1.90;;;20.40;99.90;;;;;;5004800;28;20086;-74
2021/06/05 07:38:26;;;;;;;2.75;1.95;;;20.40;99.90;;;;;;5009424;28;20338;-74
2021/06/05 07:40:53;;;;;;;3.75;2.00;;;20.50;99.90;;;;;;5028597;28;20125;-74
2021/06/05 07:43:21;;;;;;;4.30;2.83;;;20.50;99.90;;;;;;5022761;28;20075;-73
2021/06/05 07:45:47;;;;;;;2.42;2.08;;;20.50;99.90;;;;;;5016285;28;20598;-74
2021/06/05 07:48:13;;;;;;;4.15;2.03;;;20.60;99.90;;;;;;5011878;28;20086;-74
2021/06/05 07:50:40;;;;;;;4.07;2.17;;;20.70;99.90;;;;;;5018581;28;20484;-74
2021/06/05 07:53:06;;;;;;;5.05;2.35;;;20.70;99.90;;;;;;5023716;28;20075;-74
2021/06/05 07:55:31;;;;;;;3.15;2.85;;;20.70;99.90;;;;;;5022060;28;20088;-74
2021/06/05 07:57:57;;;;;;;3.33;2.33;;;20.80;99.90;;;;;;5029491;28;20121;-74
2021/06/05 08:00:26;;;;;;;2.53;2.30;;;20.80;99.90;;;;;;5026712;28;20168;-74
2021/06/05 08:02:52;;;;;;;2.60;2.05;;;20.80;99.90;;;;;;5026427;28;20086;-74
2021/06/05 08:05:19;;;;;;;2.97;2.45;;;20.80;99.90;;;;;;5016248;28;20081;-74
2021/06/05 08:07:45;;;;;;;3.13;2.50;;;20.80;99.90;;;;;;5025930;28;20113;-74
2021/06/05 08:10:13;;;;;;;3.25;2.30;;;20.80;99.90;;;;;;5015243;28;20180;-74
2021/06/05 08:12:39;;;;;;;4.10;2.60;;;21.10;99.90;;;;;;5008531;28;20094;-74
2021/06/05 08:15:06;;;;;;;6.20;2.58;;;21.20;99.90;;;;;;5010996;28;20189;-74
2021/06/05 08:17:32;;;;;;;5.57;2.72;;;21.20;99.90;;;;;;5010842;28;20074;-74
2021/06/05 08:19:58;;;;;;;4.25;3.00;;;21.30;99.90;;;;;;5010688;28;20180;-74
2021/06/05 08:22:26;;;;;;;8.55;3.22;;;21.40;99.90;;;;;;5037657;28;20078;-74
2021/06/05 08:24:52;;;;;;;3.50;3.10;;;21.30;99.90;;;;;;5019218;28;20109;-74
2021/06/05 08:27:18;;;;;;;3.53;2.75;;;21.30;99.90;;;;;;5025263;28;20101;-74
2021/06/05 08:29:44;;;;;;;4.40;2.90;;;21.30;99.90;;;;;;5018998;28;20118;-74
2021/06/05 08:32:10;;;;;;;3.30;2.65;;;21.50;99.90;;;;;;5034533;28;20621;-75
2021/06/05 08:34:36;;;;;;;5.70;2.13;;;21.70;99.90;;;;;;5013797;28;20086;-77
2021/06/05 08:37:02;;;;;;;5.82;2.95;;;21.90;99.90;;;;;;5017750;28;20450;-74
2021/06/05 08:39:28;;;;;;;3.08;2.78;;;21.90;99.90;;;;;;5018559;28;20473;-73
2021/06/05 08:41:59;;;;;;;4.50;3.30;;;21.70;99.90;;;;;;5026873;28;20097;-72
2021/06/05 08:44:36;;;;;;;3.88;3.15;;;21.90;99.90;;;;;;5014890;28;20086;-73
2021/06/05 08:47:10;;;;;;;4.82;3.50;;;21.80;99.90;;;;;;5019729;28;20085;-73
2021/06/05 08:49:39;;;;;;;4.07;2.70;;;21.90;99.90;;;;;;5023611;28;20136;-73
2021/06/05 08:52:29;;;;;;;4.18;2.60;;;22.10;99.90;;;;;;5031450;28;20574;-73
2021/06/05 08:55:09;;;;;;;3.22;2.80;;;22.20;99.90;;;;;;5033450;28;20086;-73
2021/06/05 08:57:40;;;;;;;3.45;3.08;;;22.00;99.90;;;;;;5016613;28;20092;-77
2021/06/05 09:00:33;;;;;;;5.90;3.13;;;22.00;99.90;;;;;;5012265;28;20160;-74
2021/06/05 09:03:03;;;;;;;4.93;2.72;;;22.20;99.90;;;;;;5012343;28;20078;-74
2021/06/05 09:05:32;;;;;;;4.30;3.08;;;22.20;99.90;;;;;;5029866;28;20104;-75
2021/06/05 09:07:59;;;;;;;3.63;3.00;;;22.30;99.90;;;;;;5020818;28;20157;-74
2021/06/05 09:10:26;;;;;;;4.95;3.13;;;22.30;99.90;;;;;;5023510;28;20093;-73
2021/06/05 09:12:54;;;;;;;4.22;3.17;;;22.40;99.90;;;;;;5009515;28;20092;-73
2021/06/05 09:15:23;;;;;;;3.10;2.17;;;22.40;99.90;;;;;;5010195;28;20169;-73
2021/06/05 09:17:51;;;;;;;4.25;2.65;;;22.40;99.90;;;;;;5009959;28;20083;-73
2021/06/05 09:20:41;;;;;;;3.35;2.72;;;22.40;99.90;;;;;;5009737;28;20110;-73
2021/06/05 09:23:24;;;;;;;4.25;2.72;;;22.40;99.90;;;;;;5009214;28;20161;-73
2021/06/05 09:25:51;;;;;;;2.40;2.20;;;22.40;99.90;;;;;;5009041;28;20453;-73
2021/06/05 09:28:27;;;;;;;4.28;2.53;;;22.10;99.90;;;;;;5009096;28;20897;-74
2021/06/05 09:31:16;;;;;;;5.93;2.10;;;22.30;99.90;;;;;;5009268;28;20102;-73
2021/06/05 09:33:42;;;;;;;3.13;2.03;;;22.40;99.90;;;;;;5026696;28;20101;-73
2021/06/05 09:36:32;;;;;;;4.07;1.83;;;22.40;99.90;;;;;;5020092;28;20086;-73
2021/06/05 09:39:04;;;;;;;2.47;2.22;;;22.50;99.90;;;;;;5022692;28;20074;-74
2021/06/05 09:41:42;;;;;;;5.53;2.05;;;22.40;99.90;;;;;;5022285;28;20090;-73
2021/06/05 09:44:25;;;;;;;5.38;2.63;;;22.70;99.90;;;;;;5014586;28;20074;-74
2021/06/05 09:46:59;;;;;;;3.83;2.30;;;22.90;99.90;;;;;;5008989;28;20197;-74
2021/06/05 09:49:30;;;;;;;2.65;1.83;;;22.90;99.90;;;;;;5008581;28;20105;-74
2021/06/05 09:52:04;;;;;;;2.15;1.90;;;23.10;99.90;;;;;;5008605;28;20105;-73
2021/06/05 09:54:32;;;;;;;;;;;23.00;99.90;;;;;;5014368;28;20445;-75
2021/06/05 09:57:16;;;;;;;3.58;2.20;;;22.80;99.90;;;;;;5023482;28;19961;-74
2021/06/05 09:59:42;;;;;;;5.38;2.08;;;22.90;99.90;;;;;;5024034;28;20148;-74
2021/06/05 10:02:20;;;;;;;2.38;1.80;;;23.00;99.90;;;;;;5008948;28;20086;-73
2021/06/05 10:05:04;;;;;;;3.35;2.20;;;23.00;99.90;;;;;;5023642;28;20102;-73
2021/06/05 10:07:30;;;;;;;2.97;1.55;;;23.00;99.90;;;;;;5023521;28;20232;-74
2021/06/05 10:10:07;;;;;;;3.97;1.50;;;23.00;99.90;;;;;;5007971;28;20174;-74
2021/06/05 10:12:36;;;;;;;3.05;1.90;;;22.90;99.90;;;;;;5009010;28;20084;-74
2021/06/05 10:15:13;;;;;;;5.18;1.80;;;22.50;99.90;;;;;;5009450;28;20120;-74
2021/06/05 10:17:55;;;;;;;3.47;2.25;;;22.50;99.90;;;;;;5008084;28;20070;-73
2021/06/05 10:20:54;;;;;;;4.47;1.77;;;22.60;99.90;;;;;;5012015;28;20102;-73
2021/06/05 10:23:29;;;;;;;2.85;2.08;;;22.50;99.90;;;;;;5011679;28;20070;-72
2021/06/05 10:26:01;;;;;;;3.97;1.85;;;22.60;99.90;;;;;;5033321;28;20074;-73
2021/06/05 10:28:36;;;;;;;2.88;1.92;;;22.70;99.90;;;;;;5009243;28;20089;-74
2021/06/05 10:31:09;;;;;;;2.92;1.70;;;22.90;99.90;;;;;;5008586;28;20168;-73
2021/06/05 10:33:47;;;;;;;2.45;1.77;;;22.90;99.90;;;;;;5009965;28;20295;-73
2021/06/05 10:36:18;;;;;;;2.97;2.10;;;22.80;99.90;;;;;;5023909;28;20694;-73
2021/06/05 10:38:53;;;;;;;2.58;2.33;;;22.90;99.90;;;;;;5008561;28;20078;-73
2021/06/05 10:41:26;;;;;;;5.95;1.60;;;22.70;99.90;;;;;;5009563;28;20603;-74
2021/06/05 10:43:52;;;;;;;4.80;2.00;;;22.70;99.90;;;;;;5009921;28;20093;-73
2021/06/05 10:46:43;;;;;;;4.25;1.75;;;22.60;99.90;;;;;;5007735;28;20458;-73
2021/06/05 10:49:31;;;;;;;2.35;1.70;;;22.50;99.90;;;;;;5023929;28;20066;-73
2021/06/05 10:52:11;;;;;;;3.90;1.85;;;22.70;99.90;;;;;;5008634;28;20538;-73
2021/06/05 10:54:50;;;;;;;3.00;2.10;;;22.70;99.90;;;;;;5008036;28;20137;-73
2021/06/05 10:57:22;;;;;;;3.05;1.90;;;22.70;99.90;;;;;;5015396;28;20070;-74
2021/06/05 11:00:24;;;;;;;3.97;1.60;;;22.60;99.90;;;;;;5023190;28;20097;-73
2021/06/05 11:02:53;;;;;;;2.65;2.00;;;22.70;99.90;;;;;;5015718;28;20090;-73
2021/06/05 11:05:19;;;;;;;2.72;1.83;;;22.70;99.90;;;;;;5018885;28;20128;-76
2021/06/05 11:07:47;;;;;;;5.05;1.77;;;22.70;99.90;;;;;;5007691;28;20542;-75
2021/06/05 11:10:54;;;;;;;3.20;1.83;;;22.90;99.90;;;;;;5011704;28;20094;-74
2021/06/05 11:13:51;;;;;;;4.15;2.33;;;23.10;99.90;;;;;;5008493;28;20445;-74
2021/06/05 11:16:22;;;;;;;1.85;1.60;;;23.10;99.90;;;;;;4994472;28;20086;-75
2021/06/05 11:19:22;;;;;;;1.95;1.35;;;23.30;99.90;;;;;;5010616;28;20081;-73
2021/06/05 11:22:00;;;;;;;1.70;1.48;;;23.20;99.90;;;;;;5007759;28;20079;-74
2021/06/05 11:24:26;;;;;;;2.42;1.65;;;23.40;99.90;;;;;;5009615;28;20077;-74
2021/06/05 11:26:55;;;;;;;2.17;1.50;;;23.40;99.90;;;;;;5009727;28;20542;-75
2021/06/05 11:29:23;;;;;;;2.97;1.70;;;23.30;99.90;;;;;;5005523;28;20078;-74
2021/06/05 11:31:59;;;;;;;2.25;1.35;;;23.20;99.90;;;;;;5011353;28;20078;-75
2021/06/05 11:34:45;;;;;;;3.35;1.33;;;23.00;99.90;;;;;;5014045;28;20783;-74
2021/06/05 11:37:13;;;;;;;3.65;1.42;;;23.00;99.90;;;;;;5011698;28;20098;-74
2021/06/05 11:39:46;;;;;;;1.42;1.05;;;22.90;99.90;;;;;;5015457;28;20129;-73
2021/06/05 11:42:32;;;;;;;1.60;0.85;;;23.10;99.90;;;;;;5020060;28;20081;-73
2021/06/05 11:44:57;;;;;;;3.50;1.00;;;23.20;99.90;;;;;;5006273;28;20446;-74
2021/06/05 11:47:23;;;;;;;1.08;0.75;;;23.30;99.90;;;;;;5013301;28;20131;-74
2021/06/05 11:50:21;;;;;;;5.93;0.93;;;23.40;99.90;;;;;;5008276;28;20117;-73
2021/06/05 11:52:54;;;;;;;2.85;0.80;;;23.30;99.90;;;;;;5007711;28;20085;-73
2021/06/05 11:55:22;;;;;;;4.80;0.68;;;23.30;99.90;;;;;;5007097;28;20113;-74
2021/06/05 11:57:51;;;;;;;2.90;0.82;;;23.50;99.90;;;;;;5014603;28;20147;-74
2021/06/05 12:00:22;;;;;;;4.85;1.10;;;23.50;99.90;;;;;;5044081;28;20593;-74
2021/06/05 12:03:02;;;;;;;1.83;0.43;;;23.80;99.90;;;;;;5022311;28;20121;-75
2021/06/05 12:05:30;;;;;;;4.03;0.60;;;23.80;99.90;;;;;;5019370;28;20074;-75
2021/06/05 12:07:56;;;;;;;1.17;0.50;;;23.90;99.90;;;;;;5013735;28;20067;-73
2021/06/05 12:10:33;;;;;;;5.28;0.93;;;23.80;99.90;;;;;;5019180;28;20481;-76
2021/06/05 12:12:59;;;;;;;1.52;0.50;;;23.80;99.90;;;;;;5017369;28;20188;-74
2021/06/05 12:15:33;;;;;;;1.92;0.65;;;23.90;99.90;;;;;;5012307;28;20093;-74
2021/06/05 12:18:03;;;;;;;1.85;0.40;;;23.70;99.90;;;;;;5027023;28;20078;-73
2021/06/05 12:20:40;;;;;;;7.32;1.10;;;23.70;99.90;;;;;;5015179;28;20098;-73
2021/06/05 12:23:18;;;;;;;3.35;0.70;;;23.90;99.90;;;;;;5025036;28;20082;-73
2021/06/05 12:25:45;;;;;;;3.13;0.50;;;23.80;99.90;;;;;;5032789;28;20078;-73
2021/06/05 12:28:22;;;;;;;0.77;0.45;;;23.90;99.90;;;;;;5017269;28;20070;-73
2021/06/05 12:30:48;;;;;;;2.35;0.38;;;23.80;99.90;;;;;;5022463;28;20101;-73
2021/06/05 12:33:26;;;;;;;1.92;0.77;;;23.90;99.90;;;;;;5017689;28;20090;-72
2021/06/05 12:35:52;;;;;;;1.77;0.80;;;23.60;99.90;;;;;;5020805;28;20131;-73
2021/06/05 12:38:38;;;;;;;2.00;0.80;;;23.60;99.90;;;;;;5014654;28;21075;-76
2021/06/05 12:41:10;;;;;;;1.00;0.70;;;23.60;99.70;;;;;;5022551;28;20358;-75
2021/06/05 12:43:39;;;;;;;2.35;0.70;;;23.50;99.40;;;;;;5037002;28;20097;-75
2021/06/05 12:46:12;;;;;;;1.45;0.50;;;23.90;99.90;;;;;;5011096;28;20083;-73
2021/06/05 12:48:37;;;;;;;1.85;0.63;;;24.10;99.90;;;;;;5026912;28;20542;-76
2021/06/05 12:51:09;;;;;;;1.08;0.60;;;23.90;99.40;;;;;;5026167;28;20156;-72
2021/06/05 12:53:35;;;;;;;2.17;0.47;;;23.60;98.80;;;;;;5027145;28;20074;-72
2021/06/05 12:56:25;;;;;;;0.30;0.22;;;23.50;99.20;;;;;;5014777;28;20078;-72
2021/06/05 12:58:56;;;;;;;0.52;0.30;;;23.40;99.20;;;;;;5032790;28;20074;-73
2021/06/05 13:01:32;;;;;;;0.85;0.30;;;23.30;99.90;;;;;;5014215;28;20193;-73
2021/06/05 13:04:00;;;;;;;1.33;0.50;;;23.30;99.90;;;;;;5020860;28;20879;-74